Time;durP1;ratioP1;P1;durP2;ratioP2;P2;SDS_P1;SDS_P2;PMS_P1;PMS_P2;Temp;Humidity;BMP_temperature;BMP_pressure;BME280_temperature;BME280_humidity;BME280_pressure;Samples;Min_cycle;Max_cycle;Signal;HPM_P1;HPM_P2
2022/12/11 00:00:51;;;;;;;;;;;;;;;3.77;69.71;97773.00;226947;1249;138234;-62
2022/12/11 00:06:18;;;;;;;20.80;13.10;;;;;;;3.73;69.73;97770.95;227761;1242;125384;-63
2022/12/11 00:11:22;;;;;;;22.80;12.70;;;;;;;3.66;70.01;97764.35;226751;1237;138265;-62
2022/12/11 00:16:26;;;;;;;21.10;11.60;;;;;;;3.65;70.04;97765.11;226520;1227;138856;-62
2022/12/11 00:21:34;;;;;;;22.20;11.30;;;;;;;3.62;70.31;97760.51;226805;1234;138342;-63
2022/12/11 00:26:37;;;;;;;17.50;10.70;;;;;;;3.63;69.92;97758.17;227558;1231;139451;-62
2022/12/11 00:31:41;;;;;;;21.50;12.30;;;;;;;3.70;70.25;97747.96;226845;1241;138420;-63
2022/12/11 00:36:45;;;;;;;20.10;12.20;;;;;;;3.74;69.91;97743.75;226845;1237;138645;-63
2022/12/11 00:41:55;;;;;;;25.30;13.60;;;;;;;3.75;69.76;97738.91;226929;1238;139148;-62
2022/12/11 00:47:01;;;;;;;23.10;13.00;;;;;;;3.74;69.57;97731.64;226900;1234;138311;-62
2022/12/11 00:52:06;;;;;;;22.10;12.60;;;;;;;3.72;69.45;97729.25;227622;1242;138375;-62
2022/12/11 00:57:10;;;;;;;21.50;12.20;;;;;;;3.69;69.74;97721.55;226465;1244;139336;-61
2022/12/11 01:02:14;;;;;;;18.40;11.50;;;;;;;3.64;69.60;97725.49;227535;1234;138715;-62
2022/12/11 01:07:22;;;;;;;17.20;10.20;;;;;;;3.62;69.89;97723.73;226884;1249;138284;-62
2022/12/11 01:12:27;;;;;;;16.10;10.70;;;;;;;3.59;69.78;97720.69;226407;1239;138458;-63
2022/12/11 01:17:35;;;;;;;17.00;10.40;;;;;;;3.56;69.97;97723.98;227857;1227;138649;-62
2022/12/11 01:22:39;;;;;;;17.30;10.40;;;;;;;3.52;70.04;97726.67;226737;1250;138891;-62
2022/12/11 01:27:48;;;;;;;19.00;11.00;;;;;;;3.54;70.14;97724.81;226499;1241;139539;-62
2022/12/11 01:32:52;;;;;;;18.70;11.10;;;;;;;3.61;69.85;97724.27;226324;1242;139089;-61
2022/12/11 01:38:09;;;;;;;16.90;10.60;;;;;;;3.70;69.87;97724.31;227624;1241;138903;-62
2022/12/11 01:43:14;;;;;;;18.70;11.50;;;;;;;3.76;69.75;97719.59;227637;1241;138613;-62
2022/12/11 01:48:25;;;;;;;17.90;11.30;;;;;;;3.75;69.71;97716.10;226568;1238;138299;-62
2022/12/11 01:53:36;;;;;;;18.30;11.00;;;;;;;3.69;69.55;97718.91;225796;1233;138205;-61
2022/12/11 01:58:48;;;;;;;15.20;10.50;;;;;;;3.66;69.60;97717.70;226277;1239;138102;-62
2022/12/11 02:03:54;;;;;;;14.10;9.30;;;;;;;3.62;69.71;97713.72;226385;1236;138214;-63
2022/12/11 02:08:59;;;;;;;14.00;9.10;;;;;;;3.58;69.55;97702.71;227847;1233;138397;-62
2022/12/11 02:14:45;;;;;;;14.90;9.30;;;;;;;3.54;69.64;97703.98;226695;1241;138193;-63
2022/12/11 02:20:09;;;;;;;16.90;10.00;;;;;;;3.48;69.67;97696.05;226300;1234;138796;-63
2022/12/11 02:25:56;;;;;;;14.70;9.10;;;;;;;3.43;69.69;97689.48;226433;1238;137643;-61
2022/12/11 02:31:08;;;;;;;16.40;9.60;;;;;;;3.45;69.69;97690.80;226294;1244;138931;-62
2022/12/11 02:36:17;;;;;;;15.00;9.40;;;;;;;3.51;69.55;97687.80;226548;1244;138368;-62
2022/12/11 02:41:23;;;;;;;13.40;8.50;;;;;;;3.55;69.23;97685.11;226489;1237;138520;-62
2022/12/11 02:46:28;;;;;;;14.10;8.80;;;;;;;3.54;69.25;97680.65;226351;1241;138095;-61
2022/12/11 02:51:36;;;;;;;;;;;;;;;3.52;69.57;97686.54;226534;1249;138131;-61
2022/12/11 02:57:01;;;;;;;12.70;8.60;;;;;;;3.49;69.30;97677.05;226516;1235;124155;-61
2022/12/11 03:02:06;;;;;;;13.60;9.30;;;;;;;3.45;69.20;97679.55;226549;1237;137977;-61
2022/12/11 03:07:30;;;;;;;15.00;9.00;;;;;;;3.42;69.54;97683.23;227628;1229;138444;-61
2022/12/11 03:12:37;;;;;;;12.80;8.40;;;;;;;3.38;69.69;97683.27;226788;1243;138327;-59
2022/12/11 03:18:04;;;;;;;12.00;7.80;;;;;;;3.36;69.76;97676.39;226821;1245;138889;-58
2022/12/11 03:23:20;;;;;;;14.20;8.80;;;;;;;3.33;69.66;97669.36;226788;1234;138238;-61
2022/12/11 03:28:43;;;;;;;13.00;8.50;;;;;;;3.29;69.65;97663.98;227643;1242;138409;-61
2022/12/11 03:33:52;;;;;;;14.40;8.60;;;;;;;3.30;69.61;97657.77;227630;1234;138697;-59
2022/12/11 03:39:06;;;;;;;12.90;8.50;;;;;;;3.38;69.74;97652.45;226551;1236;138462;-60
2022/12/11 03:44:30;;;;;;;14.00;8.20;;;;;;;3.44;69.35;97644.70;226596;1250;138131;-60
2022/12/11 03:49:43;;;;;;;11.70;7.80;;;;;;;3.46;68.99;97640.77;226394;1226;138009;-61
2022/12/11 03:54:49;;;;;;;13.10;8.20;;;;;;;3.45;69.17;97628.86;226477;1241;138276;-62
2022/12/11 04:00:17;;;;;;;13.30;8.40;;;;;;;3.39;68.85;97633.96;227647;1226;137821;-62
2022/12/11 04:05:21;;;;;;;12.00;8.20;;;;;;;3.34;68.95;97630.23;226737;1236;138468;-61
2022/12/11 04:10:28;;;;;;;11.20;7.30;;;;;;;3.26;69.46;97634.85;226548;1241;138116;-61
2022/12/11 04:15:33;;;;;;;10.40;7.90;;;;;;;3.24;69.32;97631.30;226545;1237;138595;-61
2022/12/11 04:26:09;;;;;;;10.40;7.40;;;;;;;3.17;69.19;97626.25;226533;1244;138066;-61
2022/12/11 04:31:19;;;;;;;10.80;7.10;;;;;;;3.12;69.26;97623.92;226787;1236;138263;-61
2022/12/11 04:36:39;;;;;;;10.60;7.30;;;;;;;3.13;69.26;97629.48;227666;1229;138660;-61
2022/12/11 04:41:46;;;;;;;9.10;6.60;;;;;;;3.17;69.36;97628.91;226749;1235;138715;-61
2022/12/11 04:46:50;;;;;;;10.80;6.90;;;;;;;3.18;69.05;97630.40;226408;1239;138051;-60
2022/12/11 04:52:10;;;;;;;9.10;6.50;;;;;;;3.18;69.06;97631.83;226397;1236;138991;-60
2022/12/11 04:57:40;;;;;;;9.10;6.20;;;;;;;3.14;68.64;97627.83;226517;1247;138317;-60
2022/12/11 05:02:59;;;;;;;8.90;6.80;;;;;;;3.11;68.99;97622.56;226571;1249;139178;-61
2022/12/11 05:08:04;;;;;;;8.90;6.90;;;;;;;3.08;68.96;97622.35;226723;1234;138051;-58
2022/12/11 05:13:10;;;;;;;9.70;6.60;;;;;;;3.03;69.06;97616.28;227449;1228;138780;-61
2022/12/11 05:18:14;;;;;;;8.60;6.50;;;;;;;3.02;68.97;97612.52;226471;1250;138278;-61
2022/12/11 05:23:21;;;;;;;8.90;6.90;;;;;;;3.00;69.42;97612.09;226625;1239;138521;-62
2022/12/11 05:28:28;;;;;;;8.50;6.00;;;;;;;2.97;69.04;97607.40;226598;1249;138350;-63
2022/12/11 05:33:33;;;;;;;9.20;6.20;;;;;;;2.94;69.24;97604.23;227742;1237;138184;-64
2022/12/11 05:38:37;;;;;;;8.60;6.30;;;;;;;2.95;69.24;97595.77;227061;1241;138348;-64
2022/12/11 05:43:41;;;;;;;9.10;6.00;;;;;;;2.97;69.28;97600.21;226617;1245;138561;-64
2022/12/11 05:48:50;;;;;;;9.40;6.60;;;;;;;3.01;68.95;97595.07;226569;1234;140659;-63
2022/12/11 05:54:09;;;;;;;10.30;6.90;;;;;;;3.05;68.95;97592.55;226653;1237;138624;-63
2022/12/11 05:59:18;;;;;;;10.70;7.30;;;;;;;3.05;68.81;97585.55;226504;1236;139731;-62
2022/12/11 06:04:26;;;;;;;9.40;6.70;;;;;;;3.03;68.82;97576.05;227673;1227;138935;-62
2022/12/11 06:09:34;;;;;;;10.50;7.20;;;;;;;2.99;69.04;97568.16;226519;1229;137600;-64
2022/12/11 06:14:41;;;;;;;205.90;127.80;;;;;;;2.99;69.82;97573.81;226652;1234;138263;-63
2022/12/11 06:19:57;;;;;;;22.80;15.00;;;;;;;3.09;69.45;97575.69;226581;1233;138812;-63
2022/12/11 06:25:49;;;;;;;12.70;8.70;;;;;;;3.05;68.91;97579.23;224342;1240;137812;-62
2022/12/11 06:40:41;;;;;;;12.80;7.90;;;;;;;2.80;68.64;97592.70;222989;1256;635543;-63
2022/12/11 06:45:48;;;;;;;412.10;259.70;;;;;;;2.74;69.01;97604.73;226495;1240;137403;-63
2022/12/11 06:51:15;;;;;;;20.60;13.20;;;;;;;2.82;68.71;97603.63;225586;1241;139256;-63
2022/12/11 06:56:41;;;;;;;13.00;8.30;;;;;;;2.93;68.79;97603.94;225480;1247;138703;-61
2022/12/11 07:02:33;;;;;;;14.30;8.40;;;;;;;2.87;68.08;97603.00;225538;1237;138309;-62
2022/12/11 07:07:54;;;;;;;12.80;8.30;;;;;;;2.80;68.16;97601.63;226136;1241;139220;-61
2022/12/11 07:13:02;;;;;;;13.20;8.10;;;;;;;2.75;68.34;97600.33;227125;1230;139029;-61
2022/12/11 07:18:12;;;;;;;11.70;7.60;;;;;;;2.71;68.55;97605.27;226226;1247;137497;-61
2022/12/11 07:23:20;;;;;;;13.30;8.60;;;;;;;2.69;68.69;97604.89;227499;1237;137675;-61
2022/12/11 07:28:27;;;;;;;209.90;130.50;;;;;;;2.70;69.20;97604.80;226474;1245;137395;-61
2022/12/11 07:33:31;;;;;;;16.30;11.30;;;;;;;2.75;68.64;97611.00;226961;1234;138313;-63
2022/12/11 07:39:04;;;;;;;11.70;7.80;;;;;;;2.66;68.33;97597.69;226796;1234;138352;-62
2022/12/11 07:44:08;;;;;;;10.40;7.30;;;;;;;2.63;68.75;97613.11;226584;1238;138189;-62
2022/12/11 07:49:16;;;;;;;11.90;7.80;;;;;;;2.59;68.56;97615.16;226725;1234;138155;-63
2022/12/11 07:54:33;;;;;;;11.60;7.90;;;;;;;2.59;68.64;97615.71;226657;1241;138047;-62
2022/12/11 07:59:40;;;;;;;13.10;7.80;;;;;;;2.64;68.65;97615.66;227635;1234;139064;-62
2022/12/11 08:04:45;;;;;;;12.20;7.80;;;;;;;2.74;68.42;97602.66;226666;1241;138115;-62
2022/12/11 08:10:02;;;;;;;14.80;8.80;;;;;;;2.80;68.24;97618.30;226495;1239;138542;-62
2022/12/11 08:15:08;;;;;;;12.80;7.80;;;;;;;2.82;67.81;97620.42;226648;1244;138454;-62
2022/12/11 08:20:18;;;;;;;37.20;24.40;;;;;;;2.85;68.56;97621.67;226504;1238;137743;-63
2022/12/11 08:25:25;;;;;;;13.30;8.50;;;;;;;2.94;67.84;97610.33;226600;1244;138876;-62
2022/12/11 08:30:54;;;;;;;13.00;8.00;;;;;;;2.87;67.67;97612.83;226658;1243;137757;-63
2022/12/11 08:36:02;;;;;;;10.80;7.50;;;;;;;2.83;67.17;97622.67;226707;1241;138025;-64
2022/12/11 08:41:13;;;;;;;11.50;8.00;;;;;;;2.76;67.12;97626.89;226648;1240;137779;-64
2022/12/11 08:46:16;;;;;;;12.90;7.90;;;;;;;2.68;66.82;97618.41;226937;1233;138192;-63
2022/12/11 08:51:21;;;;;;;12.00;7.90;;;;;;;2.67;66.82;97610.22;226762;1241;137762;-64
2022/12/11 08:56:26;;;;;;;12.80;8.40;;;;;;;2.66;66.77;97611.52;226815;1240;138063;-64
2022/12/11 09:01:29;;;;;;;14.80;9.10;;;;;;;2.65;66.83;97612.43;227783;1234;137734;-65
2022/12/11 09:06:32;;;;;;;13.70;8.80;;;;;;;2.65;66.67;97607.70;227907;1236;138764;-64
2022/12/11 09:11:36;;;;;;;12.30;8.90;;;;;;;2.60;66.65;97615.30;227814;1242;137672;-65
2022/12/11 09:16:39;;;;;;;296.90;182.50;;;;;;;2.57;67.49;97614.96;226753;1234;137625;-64
2022/12/11 09:21:43;;;;;;;13.70;8.80;;;;;;;2.70;67.94;97615.29;226907;1241;138291;-63
2022/12/11 09:26:47;;;;;;;10.80;7.20;;;;;;;2.75;66.93;97618.70;226942;1235;139151;-65
2022/12/11 09:31:50;;;;;;;12.10;7.50;;;;;;;2.76;66.19;97622.02;226998;1241;139108;-64
2022/12/11 09:36:53;;;;;;;12.80;8.30;;;;;;;2.71;65.63;97621.73;226931;1239;138928;-62
2022/12/11 09:42:19;;;;;;;11.80;7.60;;;;;;;2.69;65.71;97622.77;227074;1247;138930;-62
2022/12/11 09:47:55;;;;;;;134.40;84.10;;;;;;;2.73;65.89;97612.52;226913;1239;138325;-63
2022/12/11 09:53:02;;;;;;;11.60;7.50;;;;;;;2.80;65.63;97607.23;226590;1246;139793;-63
2022/12/11 09:58:26;;;;;;;9.30;6.60;;;;;;;2.77;65.08;97607.25;226727;1234;138137;-63
2022/12/11 10:03:41;;;;;;;11.10;7.50;;;;;;;2.68;65.27;97597.92;226738;1235;138255;-62
2022/12/11 10:08:59;;;;;;;10.50;7.00;;;;;;;2.58;65.78;97597.02;226814;1238;137992;-62
2022/12/11 10:14:28;;;;;;;15.00;9.00;;;;;;;2.58;65.67;97593.34;226958;1241;137944;-63
2022/12/11 10:19:34;;;;;;;60.10;43.90;;;;;;;2.59;65.74;97594.87;226645;1245;138485;-62
2022/12/11 10:25:18;;;;;;;14.50;10.30;;;;;;;2.72;66.99;97595.75;226831;1241;138420;-65
2022/12/11 10:30:38;;;;;;;13.40;8.90;;;;;;;2.80;65.62;97598.98;226908;1243;139024;-62
2022/12/11 10:35:56;;;;;;;16.40;10.10;;;;;;;2.76;65.31;97599.56;227000;1239;138153;-62
2022/12/11 10:41:09;;;;;;;16.90;11.20;;;;;;;2.74;65.81;97598.63;226940;1243;138626;-62
2022/12/11 10:46:19;;;;;;;17.00;11.30;;;;;;;2.74;64.89;97592.50;226821;1234;138532;-62
2022/12/11 10:51:31;;;;;;;19.50;12.90;;;;;;;2.77;65.82;97595.32;226857;1240;138076;-62
2022/12/11 10:56:37;;;;;;;16.10;10.80;;;;;;;2.76;65.27;97592.23;226715;1242;138330;-63
2022/12/11 11:01:46;;;;;;;12.30;8.80;;;;;;;2.75;65.07;97589.83;226978;1233;138432;-62
2022/12/11 11:07:42;;;;;;;13.80;9.80;;;;;;;2.66;64.12;97585.60;227694;1234;137937;-62
2022/12/11 11:12:49;;;;;;;17.70;12.00;;;;;;;2.54;63.71;97582.51;227677;1235;138990;-62
2022/12/11 11:17:56;;;;;;;15.00;10.20;;;;;;;2.48;63.76;97577.60;226960;1245;137737;-62
2022/12/11 11:23:13;;;;;;;18.60;11.30;;;;;;;2.42;64.08;97582.31;227844;1246;138861;-61
2022/12/11 11:28:26;;;;;;;16.90;11.60;;;;;;;2.39;64.20;97579.67;226640;1237;138594;-61
2022/12/11 11:33:31;;;;;;;15.50;11.40;;;;;;;2.36;63.38;97570.53;226871;1238;137835;-62
2022/12/11 11:38:57;;;;;;;;;;;;;;;2.29;63.68;97572.45;227772;1244;137499;-62
2022/12/11 11:44:05;;;;;;;19.40;12.00;;;;;;;2.30;64.25;97584.49;226811;1254;124388;-62
2022/12/11 11:49:21;;;;;;;16.90;11.60;;;;;;;2.30;64.41;97586.94;227867;1231;139479;-60
2022/12/11 11:54:50;;;;;;;17.20;11.00;;;;;;;2.29;64.46;97589.30;227088;1241;137878;-61
2022/12/11 12:00:08;;;;;;;15.00;10.80;;;;;;;2.25;64.43;97584.92;226907;1234;137608;-62
2022/12/11 12:05:18;;;;;;;14.50;10.20;;;;;;;2.26;64.45;97574.41;226937;1241;138207;-63
2022/12/11 12:10:33;;;;;;;13.30;9.50;;;;;;;2.31;63.58;97572.58;227867;1227;138643;-62
2022/12/11 12:15:53;;;;;;;11.40;7.70;;;;;;;2.31;63.26;97576.21;226936;1253;137766;-62
2022/12/11 12:21:13;;;;;;;11.00;7.60;;;;;;;2.32;62.57;97576.17;227771;1234;137784;-63
2022/12/11 12:26:28;;;;;;;12.20;8.30;;;;;;;2.32;62.32;97574.96;226952;1242;139034;-63
2022/12/11 12:31:59;;;;;;;18.00;11.40;;;;;;;2.30;62.65;97578.38;226961;1243;137667;-63
2022/12/11 12:37:20;;;;;;;12.20;8.70;;;;;;;2.28;61.98;97573.60;227747;1234;138276;-63
2022/12/11 12:42:41;;;;;;;13.30;8.70;;;;;;;2.20;61.81;97583.13;227947;1246;138145;-62
2022/12/11 12:47:47;;;;;;;20.80;10.80;;;;;;;2.20;61.77;97579.23;227885;1231;137796;-62
2022/12/11 12:52:59;;;;;;;26.00;15.60;;;;;;;2.31;64.12;97580.59;226646;1244;138228;-62
2022/12/11 12:58:28;;;;;;;15.70;9.80;;;;;;;2.32;62.25;97572.84;226505;1245;138476;-64
2022/12/11 13:04:01;;;;;;;14.00;9.00;;;;;;;2.34;62.37;97571.35;226938;1241;138246;-62
2022/12/11 13:09:26;;;;;;;15.90;11.00;;;;;;;2.46;62.79;97581.05;226996;1236;137869;-61
2022/12/11 13:14:33;;;;;;;12.70;8.60;;;;;;;2.62;62.09;97597.86;226758;1241;138772;-61
2022/12/11 13:20:13;;;;;;;13.50;9.10;;;;;;;2.65;61.73;97603.50;226632;1238;139527;-62
2022/12/11 13:26:00;;;;;;;13.10;8.40;;;;;;;2.56;61.43;97610.60;226885;1244;137764;-61
2022/12/11 13:31:48;;;;;;;;;;;;;;;;;;;;;
2022/12/11 13:38:08;;;;;;;17.80;10.50;;;;;;;2.45;61.74;97630.62;226611;1241;138249;-62
2022/12/11 13:43:19;;;;;;;14.60;9.10;;;;;;;2.29;62.17;97631.08;226768;1238;138525;-64
2022/12/11 13:48:31;;;;;;;17.70;10.00;;;;;;;2.20;62.77;97629.83;227747;1248;138244;-64
2022/12/11 13:53:34;;;;;;;15.90;10.40;;;;;;;2.15;63.12;97631.98;226872;1239;138265;-63
2022/12/11 13:58:38;;;;;;;17.70;11.20;;;;;;;2.11;63.31;97631.70;226874;1251;138427;-64
2022/12/11 14:04:01;;;;;;;16.30;10.70;;;;;;;2.06;63.88;97631.20;226742;1240;138385;-64
2022/12/11 14:09:06;;;;;;;15.20;10.50;;;;;;;2.26;67.06;97627.79;226870;1241;138709;-63
2022/12/11 14:14:30;;;;;;;17.80;10.60;;;;;;;2.29;64.72;97626.20;227841;1223;140256;-65
2022/12/11 14:19:33;;;;;;;18.20;12.10;;;;;;;2.32;64.37;97633.60;226656;1252;139445;-65
2022/12/11 14:30:52;;;;;;;18.40;12.10;;;;;;;2.26;64.25;97631.98;227037;1234;138338;-65
2022/12/11 14:35:55;;;;;;;18.50;11.70;;;;;;;2.20;64.59;97637.73;226958;1253;139309;-64
2022/12/11 14:41:10;;;;;;;193.80;112.70;;;;;;;2.15;65.19;97636.19;226829;1238;138169;-65
2022/12/11 14:46:21;;;;;;;19.80;12.30;;;;;;;2.17;65.20;97631.92;226691;1233;138274;-65
2022/12/11 14:51:27;;;;;;;216.50;109.70;;;;;;;2.16;65.92;97645.39;227714;1226;138075;-65
2022/12/11 14:56:31;;;;;;;23.90;15.00;;;;;;;2.20;65.00;97639.60;226591;1238;138438;-65
2022/12/11 15:01:36;;;;;;;20.50;12.50;;;;;;;2.06;64.69;97641.36;226508;1243;139074;-64
2022/12/11 15:06:46;;;;;;;20.00;12.10;;;;;;;1.97;64.69;97647.22;226964;1241;139353;-66
2022/12/11 15:11:50;;;;;;;20.80;13.10;;;;;;;1.86;64.88;97644.61;226819;1244;138311;-66
2022/12/11 15:16:56;;;;;;;18.40;12.30;;;;;;;2.02;68.07;97645.40;227593;1227;139905;-65
2022/12/11 15:22:04;;;;;;;19.10;12.30;;;;;;;2.19;65.28;97650.35;227007;1248;138541;-65
2022/12/11 15:27:23;;;;;;;21.80;12.70;;;;;;;2.08;64.64;97663.46;226742;1234;138699;-65
2022/12/11 15:32:26;;;;;;;110.90;63.60;;;;;;;2.00;64.41;97670.86;226913;1241;139106;-65
2022/12/11 15:37:39;;;;;;;21.30;13.70;;;;;;;1.98;64.15;97683.23;226800;1243;138495;-64
2022/12/11 15:42:42;;;;;;;18.50;12.40;;;;;;;1.87;63.65;97696.35;226872;1235;138604;-65
2022/12/11 15:47:54;;;;;;;36.20;23.60;;;;;;;1.78;63.93;97705.02;226608;1228;139244;-64
2022/12/11 15:53:00;;;;;;;25.00;13.90;;;;;;;1.73;64.90;97713.48;226638;1234;139582;-62
2022/12/11 15:58:08;;;;;;;20.40;12.20;;;;;;;1.67;64.69;97723.01;226585;1237;138276;-62
2022/12/11 16:03:14;;;;;;;18.80;11.50;;;;;;;1.54;64.78;97719.10;226683;1238;138706;-62
2022/12/11 16:08:26;;;;;;;19.00;11.40;;;;;;;1.48;64.83;97720.75;227493;1224;137826;-61
2022/12/11 16:13:30;;;;;;;16.20;11.20;;;;;;;1.36;64.74;97724.11;226735;1238;138161;-62
2022/12/11 16:18:34;;;;;;;16.40;11.50;;;;;;;1.31;64.64;97723.63;226724;1234;138610;-61
2022/12/11 16:23:37;;;;;;;17.90;12.10;;;;;;;1.27;64.74;97722.41;226707;1237;139308;-60
2022/12/11 16:28:45;;;;;;;16.90;11.80;;;;;;;1.19;64.82;97727.83;226549;1226;138512;-61
2022/12/11 16:33:48;;;;;;;88.10;60.30;;;;;;;1.14;64.73;97719.34;226549;1238;138662;-62
2022/12/11 16:38:52;;;;;;;22.20;15.30;;;;;;;1.24;66.33;97722.23;227488;1237;138538;-61
2022/12/11 16:43:59;;;;;;;18.70;12.20;;;;;;;1.29;65.48;97718.66;227444;1229;138780;-64
2022/12/11 16:49:03;;;;;;;19.00;11.70;;;;;;;1.25;65.40;97711.86;226693;1234;138880;-64
2022/12/11 16:54:06;;;;;;;24.30;13.20;;;;;;;1.25;65.51;97716.92;226759;1249;138963;-63
2022/12/11 16:59:11;;;;;;;20.10;13.10;;;;;;;1.28;65.44;97721.85;226646;1240;138985;-61
2022/12/11 17:04:17;;;;;;;21.90;14.00;;;;;;;1.29;65.48;97716.04;226688;1237;139097;-64
2022/12/11 17:09:20;;;;;;;22.70;15.40;;;;;;;1.28;65.68;97716.78;226768;1235;138983;-64
2022/12/11 17:14:51;;;;;;;24.60;15.20;;;;;;;1.28;65.53;97715.94;227456;1241;138335;-61
2022/12/11 17:20:26;;;;;;;25.40;14.90;;;;;;;1.28;65.20;97720.48;225842;1234;138848;-61
2022/12/11 17:26:00;;;;;;;23.10;14.90;;;;;;;1.25;64.54;97724.80;226302;1238;139111;-61
2022/12/11 17:31:09;;;;;;;23.10;15.60;;;;;;;1.25;64.29;97726.55;226593;1237;138464;-62
2022/12/11 17:36:19;;;;;;;25.60;15.50;;;;;;;1.20;64.57;97732.02;226568;1234;138452;-63
2022/12/11 17:41:23;;;;;;;25.20;16.20;;;;;;;1.17;64.93;97724.29;226628;1234;138466;-64
2022/12/11 17:46:26;;;;;;;25.30;16.30;;;;;;;1.12;65.12;97727.48;226579;1234;138728;-64
2022/12/11 17:51:29;;;;;;;27.20;16.40;;;;;;;1.07;65.42;97736.80;227494;1228;138651;-64
2022/12/11 17:56:34;;;;;;;38.60;25.00;;;;;;;0.98;65.64;97739.27;227527;1242;138330;-64
2022/12/11 18:01:38;;;;;;;25.00;17.00;;;;;;;1.04;66.36;97740.08;226673;1238;139101;-64
2022/12/11 18:06:41;;;;;;;29.10;17.60;;;;;;;1.09;65.61;97744.03;226807;1227;139065;-65
2022/12/11 18:11:44;;;;;;;24.40;15.40;;;;;;;1.05;65.32;97754.70;227468;1242;139047;-67
2022/12/11 18:16:47;;;;;;;25.00;15.50;;;;;;;1.10;65.32;97755.36;226703;1234;138780;-66
2022/12/11 18:21:50;;;;;;;25.70;16.10;;;;;;;1.18;65.21;97750.10;226727;1238;138002;-64
2022/12/11 18:26:53;;;;;;;24.40;16.00;;;;;;;1.16;65.29;97752.77;227448;1242;137729;-64
2022/12/11 18:31:56;;;;;;;26.00;16.60;;;;;;;1.11;65.39;97756.31;226607;1234;138081;-65
2022/12/11 18:37:01;;;;;;;33.50;19.50;;;;;;;1.08;65.71;97751.39;227459;1235;138218;-65
2022/12/11 18:42:05;;;;;;;31.90;19.70;;;;;;;1.09;66.00;97749.62;227595;1238;138402;-65
2022/12/11 18:47:28;;;;;;;33.50;20.10;;;;;;;1.08;66.25;97744.80;227477;1234;138517;-63
2022/12/11 18:52:31;;;;;;;30.90;19.20;;;;;;;1.12;66.11;97744.76;226680;1234;138820;-64
2022/12/11 18:57:47;;;;;;;28.70;17.90;;;;;;;1.11;65.95;97753.02;226778;1238;138554;-62
2022/12/11 19:03:12;;;;;;;28.20;16.60;;;;;;;1.08;65.53;97751.93;226455;1238;138866;-62
2022/12/11 19:08:50;;;;;;;26.40;17.50;;;;;;;1.04;65.30;97758.38;225648;1237;138182;-62
2022/12/11 19:14:09;;;;;;;28.10;16.50;;;;;;;1.04;65.26;97752.82;225813;1237;139011;-61
2022/12/11 19:20:08;;;;;;;22.10;15.70;;;;;;;1.05;64.99;97744.22;227035;1244;140353;-62
2022/12/11 19:25:47;;;;;;;27.20;16.50;;;;;;;0.97;64.92;97740.55;225565;1233;139754;-61
2022/12/11 19:31:31;;;;;;;28.60;17.60;;;;;;;0.89;65.08;97731.65;226023;1234;138594;-61
2022/12/11 19:36:42;;;;;;;66.50;40.40;;;;;;;0.90;66.94;97738.60;225161;1237;138262;-63
2022/12/11 19:41:46;;;;;;;24.30;16.40;;;;;;;1.07;66.51;97733.30;226556;1231;138274;-63
2022/12/11 19:46:49;;;;;;;31.80;17.00;;;;;;;1.13;65.56;97730.38;225726;1241;139967;-64
2022/12/11 19:51:52;;;;;;;27.00;17.70;;;;;;;1.11;65.19;97729.07;225762;1248;139352;-61
2022/12/11 19:56:55;;;;;;;101.60;66.20;;;;;;;1.16;66.04;97723.27;226983;1234;138504;-62
2022/12/11 20:01:58;;;;;;;33.00;19.80;;;;;;;1.41;66.19;97726.66;225961;1251;138688;-63
2022/12/11 20:07:03;;;;;;;29.30;17.50;;;;;;;1.35;64.26;97717.69;227246;1227;137778;-64
2022/12/11 20:12:09;;;;;;;30.10;18.90;;;;;;;1.21;64.08;97716.58;226747;1237;138572;-64
2022/12/11 20:17:12;;;;;;;28.20;17.40;;;;;;;1.16;64.02;97719.42;226610;1237;138808;-63
2022/12/11 20:22:17;;;;;;;28.00;18.00;;;;;;;1.10;64.09;97723.91;226763;1239;139153;-65
2022/12/11 20:27:20;;;;;;;28.50;19.30;;;;;;;0.98;64.36;97727.94;226744;1227;138638;-63
2022/12/11 20:32:24;;;;;;;35.90;20.20;;;;;;;0.88;64.75;97735.52;227515;1227;138414;-64
2022/12/11 20:37:28;;;;;;;31.60;21.00;;;;;;;0.83;65.16;97743.62;227539;1235;138689;-64
2022/12/11 20:42:32;;;;;;;30.90;20.60;;;;;;;0.80;65.19;97742.33;226781;1234;139516;-64
2022/12/11 20:47:36;;;;;;;33.00;21.00;;;;;;;0.77;65.33;97745.80;226495;1234;138345;-63
2022/12/11 20:52:39;;;;;;;35.00;22.70;;;;;;;0.77;65.29;97743.70;227543;1242;138745;-62
2022/12/11 20:57:42;;;;;;;40.00;23.70;;;;;;;0.73;65.58;97738.48;226339;1244;138917;-61
2022/12/11 21:02:53;;;;;;;31.10;20.90;;;;;;;0.67;65.52;97736.96;226596;1239;138727;-62
2022/12/11 21:08:00;;;;;;;31.10;19.40;;;;;;;0.66;65.56;97732.83;226666;1237;138436;-62
2022/12/11 21:13:04;;;;;;;33.10;20.10;;;;;;;0.59;65.74;97737.34;226847;1226;138275;-61
2022/12/11 21:18:17;;;;;;;28.90;18.70;;;;;;;0.54;65.64;97745.39;227391;1227;138658;-64
2022/12/11 21:23:21;;;;;;;32.00;18.20;;;;;;;0.53;65.61;97752.94;226487;1239;139694;-63
2022/12/11 21:28:25;;;;;;;29.90;18.10;;;;;;;0.59;65.57;97753.37;226478;1234;138958;-62
2022/12/11 21:33:34;;;;;;;31.70;20.00;;;;;;;0.62;65.25;97757.96;227457;1234;138583;-62
2022/12/11 21:38:46;;;;;;;27.90;18.60;;;;;;;0.71;64.96;97757.75;227649;1229;138550;-65
2022/12/11 21:43:52;;;;;;;30.10;17.50;;;;;;;0.72;64.76;97757.89;226741;1237;138221;-64
2022/12/11 21:49:17;;;;;;;28.60;18.40;;;;;;;0.66;64.64;97765.81;226857;1234;138690;-66
2022/12/11 21:54:21;;;;;;;32.60;19.50;;;;;;;0.61;64.78;97774.04;227561;1238;138357;-63
2022/12/11 21:59:27;;;;;;;31.70;19.20;;;;;;;0.59;65.02;97772.40;227445;1230;138775;-65
2022/12/11 22:04:32;;;;;;;27.60;17.70;;;;;;;0.58;65.05;97770.35;226461;1233;138421;-64
2022/12/11 22:09:36;;;;;;;31.40;17.80;;;;;;;0.48;65.08;97772.01;226518;1238;138813;-64
2022/12/11 22:14:43;;;;;;;31.30;18.00;;;;;;;0.40;65.34;97768.14;226532;1237;138607;-63
2022/12/11 22:19:51;;;;;;;30.00;18.20;;;;;;;0.40;65.26;97767.80;226741;1237;138715;-66
2022/12/11 22:25:02;;;;;;;28.60;18.30;;;;;;;0.40;65.20;97770.08;226779;1238;138381;-66
2022/12/11 22:30:07;;;;;;;27.00;17.00;;;;;;;0.38;65.06;97763.70;226311;1229;138381;-66
2022/12/11 22:35:14;;;;;;;26.80;15.50;;;;;;;0.33;65.00;97754.32;226744;1247;138854;-63
2022/12/11 22:40:29;;;;;;;;;;;;;;;;;;;;;
2022/12/11 22:45:38;;;;;;;29.80;18.90;;;;;;;0.28;64.99;97749.47;226653;1233;138705;-63
2022/12/11 22:50:43;;;;;;;28.20;17.30;;;;;;;0.24;65.10;97746.49;226802;1233;138903;-64
2022/12/11 22:55:52;;;;;;;26.90;16.50;;;;;;;0.19;65.35;97749.65;227452;1237;139237;-63
2022/12/11 23:01:25;;;;;;;28.30;17.10;;;;;;;0.34;65.21;97750.09;226811;1237;138408;-63
2022/12/11 23:06:29;;;;;;;31.70;18.70;;;;;;;0.44;64.87;97756.28;226664;1240;139474;-62
2022/12/11 23:11:37;;;;;;;32.30;18.20;;;;;;;0.49;64.67;97755.56;226762;1235;138931;-63
2022/12/11 23:16:41;;;;;;;30.10;16.30;;;;;;;0.46;64.59;97751.50;226619;1234;138467;-65
2022/12/11 23:21:45;;;;;;;24.60;15.20;;;;;;;0.37;64.75;97750.98;226710;1233;138062;-65
2022/12/11 23:26:49;;;;;;;27.30;16.30;;;;;;;0.33;64.64;97754.14;227547;1230;139081;-63
2022/12/11 23:31:54;;;;;;;26.90;15.60;;;;;;;0.28;64.83;97756.24;227587;1234;138552;-62
2022/12/11 23:36:59;;;;;;;27.30;16.00;;;;;;;0.24;64.72;97757.66;226929;1236;138048;-64
2022/12/11 23:42:08;;;;;;;25.50;15.40;;;;;;;0.25;64.71;97756.89;226470;1240;138657;-65
2022/12/11 23:47:16;;;;;;;26.80;14.60;;;;;;;0.19;64.94;97766.36;226523;1233;138700;-62
2022/12/11 23:52:21;;;;;;;25.60;14.90;;;;;;;0.17;64.99;97763.17;227675;1231;138333;-65
2022/12/11 23:57:27;;;;;;;28.40;16.00;;;;;;;0.14;65.46;97764.66;227567;1227;138736;-64
